sensor_id;sensor_type;location;lat;lon;timestamp;P1;durP1;ratioP1;P2;durP2;ratioP2
46136;SDS011;31871;49.418;8.752;2022-12-18T00:02:14;41.27;;;13.57;;
46136;SDS011;31871;49.418;8.752;2022-12-18T00:04:39;42.37;;;11.20;;
46136;SDS011;31871;49.418;8.752;2022-12-18T00:07:05;32.43;;;11.63;;
46136;SDS011;31871;49.418;8.752;2022-12-18T00:09:31;25.77;;;11.30;;
46136;SDS011;31871;49.418;8.752;2022-12-18T00:11:56;31.00;;;11.03;;
46136;SDS011;31871;49.418;8.752;2022-12-18T00:14:22;25.97;;;9.53;;
46136;SDS011;31871;49.418;8.752;2022-12-18T00:16:47;28.33;;;11.07;;
46136;SDS011;31871;49.418;8.752;2022-12-18T00:19:13;31.73;;;11.37;;
46136;SDS011;31871;49.418;8.752;2022-12-18T00:21:40;36.93;;;12.50;;
46136;SDS011;31871;49.418;8.752;2022-12-18T00:24:06;26.13;;;9.97;;
46136;SDS011;31871;49.418;8.752;2022-12-18T00:26:34;42.03;;;15.33;;
46136;SDS011;31871;49.418;8.752;2022-12-18T00:29:01;29.70;;;13.10;;
46136;SDS011;31871;49.418;8.752;2022-12-18T00:31:29;35.97;;;10.57;;
46136;SDS011;31871;49.418;8.752;2022-12-18T00:33:55;44.23;;;12.20;;
46136;SDS011;31871;49.418;8.752;2022-12-18T00:36:26;31.73;;;12.07;;
46136;SDS011;31871;49.418;8.752;2022-12-18T00:38:54;33.67;;;11.03;;
46136;SDS011;31871;49.418;8.752;2022-12-18T00:41:21;32.10;;;11.57;;
46136;SDS011;31871;49.418;8.752;2022-12-18T00:44:06;31.27;;;11.80;;
46136;SDS011;31871;49.418;8.752;2022-12-18T00:46:34;37.23;;;11.60;;
46136;SDS011;31871;49.418;8.752;2022-12-18T00:48:59;32.40;;;10.67;;
46136;SDS011;31871;49.418;8.752;2022-12-18T00:51:25;37.97;;;12.43;;
46136;SDS011;31871;49.418;8.752;2022-12-18T00:53:51;32.47;;;11.70;;
46136;SDS011;31871;49.418;8.752;2022-12-18T00:56:17;28.70;;;11.43;;
46136;SDS011;31871;49.418;8.752;2022-12-18T00:58:43;28.20;;;10.30;;
46136;SDS011;31871;49.418;8.752;2022-12-18T01:01:08;41.43;;;11.47;;
46136;SDS011;31871;49.418;8.752;2022-12-18T01:03:34;29.97;;;10.00;;
46136;SDS011;31871;49.418;8.752;2022-12-18T01:06:04;36.77;;;12.17;;
46136;SDS011;31871;49.418;8.752;2022-12-18T01:08:31;25.57;;;11.00;;
46136;SDS011;31871;49.418;8.752;2022-12-18T01:10:56;34.07;;;10.93;;
46136;SDS011;31871;49.418;8.752;2022-12-18T01:13:22;35.03;;;10.70;;
46136;SDS011;31871;49.418;8.752;2022-12-18T01:15:48;34.50;;;12.13;;
46136;SDS011;31871;49.418;8.752;2022-12-18T01:18:14;26.07;;;10.57;;
46136;SDS011;31871;49.418;8.752;2022-12-18T01:20:40;43.67;;;11.97;;
46136;SDS011;31871;49.418;8.752;2022-12-18T01:23:05;30.87;;;11.57;;
46136;SDS011;31871;49.418;8.752;2022-12-18T01:25:31;23.20;;;9.57;;
46136;SDS011;31871;49.418;8.752;2022-12-18T01:27:56;27.40;;;10.40;;
46136;SDS011;31871;49.418;8.752;2022-12-18T01:30:22;27.80;;;10.93;;
46136;SDS011;31871;49.418;8.752;2022-12-18T01:32:47;35.77;;;9.40;;
46136;SDS011;31871;49.418;8.752;2022-12-18T01:35:13;35.77;;;11.90;;
46136;SDS011;31871;49.418;8.752;2022-12-18T01:37:38;20.83;;;8.57;;
46136;SDS011;31871;49.418;8.752;2022-12-18T01:40:04;22.93;;;9.17;;
46136;SDS011;31871;49.418;8.752;2022-12-18T01:42:30;26.33;;;10.77;;
46136;SDS011;31871;49.418;8.752;2022-12-18T01:47:29;23.20;;;8.30;;
46136;SDS011;31871;49.418;8.752;2022-12-18T01:49:56;30.13;;;9.67;;
46136;SDS011;31871;49.418;8.752;2022-12-18T01:52:24;27.27;;;9.83;;
46136;SDS011;31871;49.418;8.752;2022-12-18T01:54:53;25.17;;;8.97;;
46136;SDS011;31871;49.418;8.752;2022-12-18T01:57:20;35.07;;;9.90;;
46136;SDS011;31871;49.418;8.752;2022-12-18T01:59:49;31.13;;;10.93;;
46136;SDS011;31871;49.418;8.752;2022-12-18T02:02:17;26.43;;;10.03;;
46136;SDS011;31871;49.418;8.752;2022-12-18T02:04:44;26.50;;;9.30;;
46136;SDS011;31871;49.418;8.752;2022-12-18T02:12:20;18.77;;;7.17;;
46136;SDS011;31871;49.418;8.752;2022-12-18T02:17:29;18.40;;;7.80;;
46136;SDS011;31871;49.418;8.752;2022-12-18T02:20:12;24.33;;;9.33;;
46136;SDS011;31871;49.418;8.752;2022-12-18T02:25:37;20.33;;;7.73;;
46136;SDS011;31871;49.418;8.752;2022-12-18T02:28:18;16.00;;;6.17;;
46136;SDS011;31871;49.418;8.752;2022-12-18T02:30:45;19.90;;;7.07;;
46136;SDS011;31871;49.418;8.752;2022-12-18T02:33:14;21.33;;;8.30;;
46136;SDS011;31871;49.418;8.752;2022-12-18T02:35:40;28.57;;;8.10;;
46136;SDS011;31871;49.418;8.752;2022-12-18T02:38:08;25.90;;;7.83;;
46136;SDS011;31871;49.418;8.752;2022-12-18T02:40:34;19.10;;;7.97;;
46136;SDS011;31871;49.418;8.752;2022-12-18T02:43:02;27.50;;;10.37;;
46136;SDS011;31871;49.418;8.752;2022-12-18T02:45:32;16.87;;;7.87;;
46136;SDS011;31871;49.418;8.752;2022-12-18T02:47:57;23.23;;;7.80;;
46136;SDS011;31871;49.418;8.752;2022-12-18T02:50:36;23.53;;;8.00;;
46136;SDS011;31871;49.418;8.752;2022-12-18T02:53:45;13.80;;;7.33;;
46136;SDS011;31871;49.418;8.752;2022-12-18T02:56:31;17.23;;;6.53;;
46136;SDS011;31871;49.418;8.752;2022-12-18T02:59:11;37.13;;;7.17;;
46136;SDS011;31871;49.418;8.752;2022-12-18T03:04:59;19.80;;;6.37;;
46136;SDS011;31871;49.418;8.752;2022-12-18T03:07:09;19.83;;;6.80;;
46136;SDS011;31871;49.418;8.752;2022-12-18T03:09:44;18.90;;;7.97;;
46136;SDS011;31871;49.418;8.752;2022-12-18T03:12:19;20.70;;;7.10;;
46136;SDS011;31871;49.418;8.752;2022-12-18T03:15:08;15.30;;;5.40;;
46136;SDS011;31871;49.418;8.752;2022-12-18T03:17:57;14.17;;;6.00;;
46136;SDS011;31871;49.418;8.752;2022-12-18T03:20:28;19.17;;;7.43;;
46136;SDS011;31871;49.418;8.752;2022-12-18T03:22:58;32.07;;;8.03;;
46136;SDS011;31871;49.418;8.752;2022-12-18T03:25:29;21.52;;;7.57;;
46136;SDS011;31871;49.418;8.752;2022-12-18T03:27:56;13.57;;;6.27;;
46136;SDS011;31871;49.418;8.752;2022-12-18T03:30:24;21.20;;;8.30;;
46136;SDS011;31871;49.418;8.752;2022-12-18T03:35:33;21.47;;;6.90;;
46136;SDS011;31871;49.418;8.752;2022-12-18T03:38:02;22.00;;;6.90;;
46136;SDS011;31871;49.418;8.752;2022-12-18T03:43:29;20.80;;;6.50;;
46136;SDS011;31871;49.418;8.752;2022-12-18T03:46:06;19.03;;;7.17;;
46136;SDS011;31871;49.418;8.752;2022-12-18T03:48:43;25.07;;;6.33;;
46136;SDS011;31871;49.418;8.752;2022-12-18T03:54:11;15.80;;;5.97;;
46136;SDS011;31871;49.418;8.752;2022-12-18T03:56:42;14.73;;;5.90;;
46136;SDS011;31871;49.418;8.752;2022-12-18T03:59:13;17.27;;;6.30;;
46136;SDS011;31871;49.418;8.752;2022-12-18T04:01:42;24.60;;;7.73;;
46136;SDS011;31871;49.418;8.752;2022-12-18T04:04:13;19.67;;;7.20;;
46136;SDS011;31871;49.418;8.752;2022-12-18T04:06:40;18.60;;;6.80;;
46136;SDS011;31871;49.418;8.752;2022-12-18T04:09:06;25.30;;;7.27;;
46136;SDS011;31871;49.418;8.752;2022-12-18T04:11:32;25.53;;;8.30;;
46136;SDS011;31871;49.418;8.752;2022-12-18T04:13:58;23.37;;;7.83;;
46136;SDS011;31871;49.418;8.752;2022-12-18T04:16:24;13.27;;;6.00;;
46136;SDS011;31871;49.418;8.752;2022-12-18T04:18:50;25.97;;;7.40;;
46136;SDS011;31871;49.418;8.752;2022-12-18T04:21:16;23.07;;;9.10;;
46136;SDS011;31871;49.418;8.752;2022-12-18T04:23:42;15.57;;;5.50;;
46136;SDS011;31871;49.418;8.752;2022-12-18T04:26:07;18.37;;;6.63;;
46136;SDS011;31871;49.418;8.752;2022-12-18T04:28:33;17.77;;;8.00;;
46136;SDS011;31871;49.418;8.752;2022-12-18T04:30:58;19.70;;;7.57;;
46136;SDS011;31871;49.418;8.752;2022-12-18T04:33:24;22.23;;;7.37;;
46136;SDS011;31871;49.418;8.752;2022-12-18T04:35:50;16.40;;;7.20;;
46136;SDS011;31871;49.418;8.752;2022-12-18T04:38:15;25.03;;;8.27;;
46136;SDS011;31871;49.418;8.752;2022-12-18T04:40:41;28.93;;;6.80;;
46136;SDS011;31871;49.418;8.752;2022-12-18T04:43:07;17.00;;;7.00;;
46136;SDS011;31871;49.418;8.752;2022-12-18T04:45:32;18.77;;;6.83;;
46136;SDS011;31871;49.418;8.752;2022-12-18T04:47:59;15.63;;;5.50;;
46136;SDS011;31871;49.418;8.752;2022-12-18T04:50:25;27.83;;;7.50;;
46136;SDS011;31871;49.418;8.752;2022-12-18T04:52:51;17.50;;;6.67;;
46136;SDS011;31871;49.418;8.752;2022-12-18T04:55:17;23.10;;;7.30;;
46136;SDS011;31871;49.418;8.752;2022-12-18T04:57:42;12.57;;;6.00;;
46136;SDS011;31871;49.418;8.752;2022-12-18T05:00:08;19.17;;;6.77;;
46136;SDS011;31871;49.418;8.752;2022-12-18T05:02:34;25.93;;;7.47;;
46136;SDS011;31871;49.418;8.752;2022-12-18T05:05:00;21.40;;;7.07;;
46136;SDS011;31871;49.418;8.752;2022-12-18T05:07:25;21.07;;;7.53;;
46136;SDS011;31871;49.418;8.752;2022-12-18T05:09:51;14.53;;;6.17;;
46136;SDS011;31871;49.418;8.752;2022-12-18T05:12:16;14.50;;;6.03;;
46136;SDS011;31871;49.418;8.752;2022-12-18T05:14:42;26.30;;;7.73;;
46136;SDS011;31871;49.418;8.752;2022-12-18T05:17:07;31.63;;;7.93;;
46136;SDS011;31871;49.418;8.752;2022-12-18T05:19:33;25.33;;;7.57;;
46136;SDS011;31871;49.418;8.752;2022-12-18T05:21:58;20.03;;;8.43;;
46136;SDS011;31871;49.418;8.752;2022-12-18T05:24:24;20.80;;;6.53;;
46136;SDS011;31871;49.418;8.752;2022-12-18T05:26:50;22.83;;;6.07;;
46136;SDS011;31871;49.418;8.752;2022-12-18T05:29:15;15.80;;;6.83;;
46136;SDS011;31871;49.418;8.752;2022-12-18T05:31:41;15.10;;;7.03;;
46136;SDS011;31871;49.418;8.752;2022-12-18T05:34:06;19.73;;;8.07;;
46136;SDS011;31871;49.418;8.752;2022-12-18T05:36:32;14.77;;;7.67;;
46136;SDS011;31871;49.418;8.752;2022-12-18T05:38:57;21.20;;;8.37;;
46136;SDS011;31871;49.418;8.752;2022-12-18T05:41:23;23.47;;;9.97;;
46136;SDS011;31871;49.418;8.752;2022-12-18T05:43:48;22.40;;;8.83;;
46136;SDS011;31871;49.418;8.752;2022-12-18T05:46:15;32.63;;;9.67;;
46136;SDS011;31871;49.418;8.752;2022-12-18T05:48:42;21.43;;;7.17;;
46136;SDS011;31871;49.418;8.752;2022-12-18T05:51:10;20.67;;;6.80;;
46136;SDS011;31871;49.418;8.752;2022-12-18T05:53:37;29.70;;;9.03;;
46136;SDS011;31871;49.418;8.752;2022-12-18T05:56:04;21.83;;;8.70;;
46136;SDS011;31871;49.418;8.752;2022-12-18T05:58:32;29.93;;;10.47;;
46136;SDS011;31871;49.418;8.752;2022-12-18T06:01:05;26.40;;;9.87;;
46136;SDS011;31871;49.418;8.752;2022-12-18T06:03:32;28.30;;;9.17;;
46136;SDS011;31871;49.418;8.752;2022-12-18T06:05:58;35.27;;;10.40;;
46136;SDS011;31871;49.418;8.752;2022-12-18T06:08:23;32.30;;;9.00;;
46136;SDS011;31871;49.418;8.752;2022-12-18T06:10:50;37.03;;;9.50;;
46136;SDS011;31871;49.418;8.752;2022-12-18T06:13:17;38.00;;;11.70;;
46136;SDS011;31871;49.418;8.752;2022-12-18T06:15:43;35.20;;;11.47;;
46136;SDS011;31871;49.418;8.752;2022-12-18T06:18:09;36.17;;;11.10;;
46136;SDS011;31871;49.418;8.752;2022-12-18T06:20:34;35.70;;;10.13;;
46136;SDS011;31871;49.418;8.752;2022-12-18T06:23:01;29.80;;;9.73;;
46136;SDS011;31871;49.418;8.752;2022-12-18T06:25:27;24.70;;;9.70;;
46136;SDS011;31871;49.418;8.752;2022-12-18T06:27:53;41.47;;;12.20;;
46136;SDS011;31871;49.418;8.752;2022-12-18T06:30:19;37.00;;;11.33;;
46136;SDS011;31871;49.418;8.752;2022-12-18T06:32:45;30.57;;;10.17;;
46136;SDS011;31871;49.418;8.752;2022-12-18T06:35:10;30.63;;;9.40;;
46136;SDS011;31871;49.418;8.752;2022-12-18T06:37:36;28.33;;;9.07;;
46136;SDS011;31871;49.418;8.752;2022-12-18T06:40:01;27.73;;;9.83;;
46136;SDS011;31871;49.418;8.752;2022-12-18T06:42:28;31.63;;;10.17;;
46136;SDS011;31871;49.418;8.752;2022-12-18T06:44:53;31.73;;;10.90;;
46136;SDS011;31871;49.418;8.752;2022-12-18T06:47:19;35.97;;;12.07;;
46136;SDS011;31871;49.418;8.752;2022-12-18T06:49:44;31.07;;;9.47;;
46136;SDS011;31871;49.418;8.752;2022-12-18T06:52:10;32.27;;;10.93;;
46136;SDS011;31871;49.418;8.752;2022-12-18T06:54:35;31.63;;;11.00;;
46136;SDS011;31871;49.418;8.752;2022-12-18T06:57:01;31.17;;;11.27;;
46136;SDS011;31871;49.418;8.752;2022-12-18T06:59:27;28.53;;;10.60;;
46136;SDS011;31871;49.418;8.752;2022-12-18T07:01:52;36.13;;;11.07;;
46136;SDS011;31871;49.418;8.752;2022-12-18T07:04:18;29.67;;;11.90;;
46136;SDS011;31871;49.418;8.752;2022-12-18T07:06:43;44.77;;;12.40;;
46136;SDS011;31871;49.418;8.752;2022-12-18T07:09:09;35.97;;;12.53;;
46136;SDS011;31871;49.418;8.752;2022-12-18T07:11:34;39.87;;;13.00;;
46136;SDS011;31871;49.418;8.752;2022-12-18T07:14:00;48.80;;;11.00;;
46136;SDS011;31871;49.418;8.752;2022-12-18T07:16:26;41.13;;;11.03;;
46136;SDS011;31871;49.418;8.752;2022-12-18T07:18:54;39.83;;;12.30;;
46136;SDS011;31871;49.418;8.752;2022-12-18T07:21:20;37.90;;;12.33;;
46136;SDS011;31871;49.418;8.752;2022-12-18T07:23:47;28.13;;;12.00;;
46136;SDS011;31871;49.418;8.752;2022-12-18T07:26:14;31.90;;;11.47;;
46136;SDS011;31871;49.418;8.752;2022-12-18T07:28:41;45.03;;;11.07;;
46136;SDS011;31871;49.418;8.752;2022-12-18T07:31:09;47.60;;;11.63;;
46136;SDS011;31871;49.418;8.752;2022-12-18T07:33:36;30.90;;;11.60;;
46136;SDS011;31871;49.418;8.752;2022-12-18T07:36:02;29.00;;;10.00;;
46136;SDS011;31871;49.418;8.752;2022-12-18T07:38:29;31.43;;;10.27;;
46136;SDS011;31871;49.418;8.752;2022-12-18T07:41:05;26.93;;;10.57;;
46136;SDS011;31871;49.418;8.752;2022-12-18T07:43:33;30.57;;;10.47;;
46136;SDS011;31871;49.418;8.752;2022-12-18T07:45:59;32.47;;;9.17;;
46136;SDS011;31871;49.418;8.752;2022-12-18T07:48:24;26.47;;;8.87;;
46136;SDS011;31871;49.418;8.752;2022-12-18T07:50:50;47.27;;;10.77;;
46136;SDS011;31871;49.418;8.752;2022-12-18T07:53:16;25.63;;;9.77;;
46136;SDS011;31871;49.418;8.752;2022-12-18T07:55:42;27.80;;;8.90;;
46136;SDS011;31871;49.418;8.752;2022-12-18T07:58:08;30.93;;;10.27;;
46136;SDS011;31871;49.418;8.752;2022-12-18T08:00:33;25.37;;;9.60;;
46136;SDS011;31871;49.418;8.752;2022-12-18T08:02:59;33.13;;;10.37;;
46136;SDS011;31871;49.418;8.752;2022-12-18T08:05:25;30.47;;;10.40;;
46136;SDS011;31871;49.418;8.752;2022-12-18T08:07:51;26.47;;;10.30;;
46136;SDS011;31871;49.418;8.752;2022-12-18T08:10:17;30.10;;;10.83;;
46136;SDS011;31871;49.418;8.752;2022-12-18T08:12:43;31.07;;;12.33;;
46136;SDS011;31871;49.418;8.752;2022-12-18T08:15:09;36.77;;;11.10;;
46136;SDS011;31871;49.418;8.752;2022-12-18T08:17:35;29.77;;;10.50;;
46136;SDS011;31871;49.418;8.752;2022-12-18T08:20:00;36.03;;;8.70;;
46136;SDS011;31871;49.418;8.752;2022-12-18T08:22:26;28.43;;;10.00;;
46136;SDS011;31871;49.418;8.752;2022-12-18T08:24:51;43.97;;;12.20;;
46136;SDS011;31871;49.418;8.752;2022-12-18T08:27:17;30.83;;;10.30;;
46136;SDS011;31871;49.418;8.752;2022-12-18T08:29:42;35.90;;;12.23;;
46136;SDS011;31871;49.418;8.752;2022-12-18T08:32:08;37.23;;;12.27;;
46136;SDS011;31871;49.418;8.752;2022-12-18T08:34:33;37.23;;;11.07;;
46136;SDS011;31871;49.418;8.752;2022-12-18T08:36:59;36.70;;;11.17;;
46136;SDS011;31871;49.418;8.752;2022-12-18T08:39:24;39.37;;;11.00;;
46136;SDS011;31871;49.418;8.752;2022-12-18T08:41:50;30.27;;;9.47;;
46136;SDS011;31871;49.418;8.752;2022-12-18T08:44:34;38.50;;;11.00;;
46136;SDS011;31871;49.418;8.752;2022-12-18T08:47:03;27.60;;;9.40;;
46136;SDS011;31871;49.418;8.752;2022-12-18T08:49:29;35.53;;;8.70;;
46136;SDS011;31871;49.418;8.752;2022-12-18T08:51:55;34.77;;;12.23;;
46136;SDS011;31871;49.418;8.752;2022-12-18T08:54:22;30.20;;;10.87;;
46136;SDS011;31871;49.418;8.752;2022-12-18T08:56:48;27.00;;;9.40;;
46136;SDS011;31871;49.418;8.752;2022-12-18T08:59:14;24.57;;;10.33;;
46136;SDS011;31871;49.418;8.752;2022-12-18T09:01:41;26.80;;;10.10;;
46136;SDS011;31871;49.418;8.752;2022-12-18T09:04:07;29.63;;;9.33;;
46136;SDS011;31871;49.418;8.752;2022-12-18T09:06:34;27.17;;;10.13;;
46136;SDS011;31871;49.418;8.752;2022-12-18T09:09:00;34.93;;;10.73;;
46136;SDS011;31871;49.418;8.752;2022-12-18T09:11:26;28.20;;;10.37;;
46136;SDS011;31871;49.418;8.752;2022-12-18T09:13:53;24.93;;;8.23;;
46136;SDS011;31871;49.418;8.752;2022-12-18T09:16:20;60.50;;;11.87;;
46136;SDS011;31871;49.418;8.752;2022-12-18T09:18:47;21.83;;;8.17;;
46136;SDS011;31871;49.418;8.752;2022-12-18T09:21:14;25.97;;;10.17;;
46136;SDS011;31871;49.418;8.752;2022-12-18T09:23:43;27.53;;;10.87;;
46136;SDS011;31871;49.418;8.752;2022-12-18T09:26:08;26.60;;;10.33;;
46136;SDS011;31871;49.418;8.752;2022-12-18T09:28:34;26.80;;;9.97;;
46136;SDS011;31871;49.418;8.752;2022-12-18T09:31:03;29.03;;;8.83;;
46136;SDS011;31871;49.418;8.752;2022-12-18T09:33:34;31.98;;;9.43;;
46136;SDS011;31871;49.418;8.752;2022-12-18T09:36:01;30.00;;;9.53;;
46136;SDS011;31871;49.418;8.752;2022-12-18T09:38:29;20.80;;;9.50;;
46136;SDS011;31871;49.418;8.752;2022-12-18T09:40:57;36.30;;;9.13;;
46136;SDS011;31871;49.418;8.752;2022-12-18T09:46:03;30.63;;;8.95;;
46136;SDS011;31871;49.418;8.752;2022-12-18T09:48:34;26.73;;;8.87;;
46136;SDS011;31871;49.418;8.752;2022-12-18T09:51:03;26.10;;;9.13;;
46136;SDS011;31871;49.418;8.752;2022-12-18T09:56:02;29.43;;;9.10;;
46136;SDS011;31871;49.418;8.752;2022-12-18T09:58:35;43.13;;;10.73;;
46136;SDS011;31871;49.418;8.752;2022-12-18T10:01:12;31.53;;;10.37;;
46136;SDS011;31871;49.418;8.752;2022-12-18T10:03:47;38.23;;;11.63;;
46136;SDS011;31871;49.418;8.752;2022-12-18T10:06:14;38.17;;;12.23;;
46136;SDS011;31871;49.418;8.752;2022-12-18T10:14:15;34.05;;;10.63;;
46136;SDS011;31871;49.418;8.752;2022-12-18T10:22:50;28.07;;;9.20;;
46136;SDS011;31871;49.418;8.752;2022-12-18T10:25:27;32.37;;;9.87;;
46136;SDS011;31871;49.418;8.752;2022-12-18T10:28:03;24.40;;;8.60;;
46136;SDS011;31871;49.418;8.752;2022-12-18T10:30:35;26.27;;;9.80;;
46136;SDS011;31871;49.418;8.752;2022-12-18T10:33:03;38.83;;;12.07;;
46136;SDS011;31871;49.418;8.752;2022-12-18T10:35:28;38.30;;;12.20;;
46136;SDS011;31871;49.418;8.752;2022-12-18T10:43:28;30.20;;;10.87;;
46136;SDS011;31871;49.418;8.752;2022-12-18T10:45:59;29.67;;;9.70;;
46136;SDS011;31871;49.418;8.752;2022-12-18T10:48:36;31.67;;;9.93;;
46136;SDS011;31871;49.418;8.752;2022-12-18T10:51:24;34.63;;;11.23;;
46136;SDS011;31871;49.418;8.752;2022-12-18T10:56:32;35.63;;;11.37;;
46136;SDS011;31871;49.418;8.752;2022-12-18T10:59:04;43.63;;;11.00;;
46136;SDS011;31871;49.418;8.752;2022-12-18T11:01:51;31.50;;;10.57;;
46136;SDS011;31871;49.418;8.752;2022-12-18T11:09:24;26.20;;;9.97;;
46136;SDS011;31871;49.418;8.752;2022-12-18T11:11:52;37.87;;;9.57;;
46136;SDS011;31871;49.418;8.752;2022-12-18T11:14:25;51.30;;;11.47;;
46136;SDS011;31871;49.418;8.752;2022-12-18T11:16:56;27.90;;;10.67;;
46136;SDS011;31871;49.418;8.752;2022-12-18T11:21:56;37.90;;;11.77;;
46136;SDS011;31871;49.418;8.752;2022-12-18T11:24:27;39.27;;;10.53;;
46136;SDS011;31871;49.418;8.752;2022-12-18T11:26:54;35.63;;;11.97;;
46136;SDS011;31871;49.418;8.752;2022-12-18T11:29:29;42.40;;;12.20;;
46136;SDS011;31871;49.418;8.752;2022-12-18T11:34:39;45.50;;;12.97;;
46136;SDS011;31871;49.418;8.752;2022-12-18T11:37:10;40.93;;;11.43;;
46136;SDS011;31871;49.418;8.752;2022-12-18T11:39:38;28.93;;;10.07;;
46136;SDS011;31871;49.418;8.752;2022-12-18T11:42:12;43.77;;;10.70;;
46136;SDS011;31871;49.418;8.752;2022-12-18T11:50:25;34.63;;;10.73;;
46136;SDS011;31871;49.418;8.752;2022-12-18T11:52:51;28.87;;;10.73;;
46136;SDS011;31871;49.418;8.752;2022-12-18T11:55:24;32.93;;;11.43;;
46136;SDS011;31871;49.418;8.752;2022-12-18T12:12:41;39.17;;;11.50;;
46136;SDS011;31871;49.418;8.752;2022-12-18T12:15:28;37.47;;;10.03;;
46136;SDS011;31871;49.418;8.752;2022-12-18T12:28:40;50.73;;;13.63;;
46136;SDS011;31871;49.418;8.752;2022-12-18T12:34:18;42.20;;;11.93;;
46136;SDS011;31871;49.418;8.752;2022-12-18T12:39:21;42.83;;;12.13;;
46136;SDS011;31871;49.418;8.752;2022-12-18T12:41:51;37.93;;;12.57;;
46136;SDS011;31871;49.418;8.752;2022-12-18T12:44:41;43.70;;;12.00;;
46136;SDS011;31871;49.418;8.752;2022-12-18T12:47:13;50.27;;;13.73;;
46136;SDS011;31871;49.418;8.752;2022-12-18T12:49:42;44.13;;;12.77;;
46136;SDS011;31871;49.418;8.752;2022-12-18T12:52:13;35.40;;;10.33;;
46136;SDS011;31871;49.418;8.752;2022-12-18T12:54:42;48.43;;;13.70;;
46136;SDS011;31871;49.418;8.752;2022-12-18T13:08:04;38.70;;;12.33;;
46136;SDS011;31871;49.418;8.752;2022-12-18T13:10:33;35.03;;;10.17;;
46136;SDS011;31871;49.418;8.752;2022-12-18T13:15:38;35.27;;;12.40;;
46136;SDS011;31871;49.418;8.752;2022-12-18T13:33:45;36.10;;;11.40;;
46136;SDS011;31871;49.418;8.752;2022-12-18T13:36:16;36.80;;;12.43;;
46136;SDS011;31871;49.418;8.752;2022-12-18T13:38:47;31.63;;;11.47;;
46136;SDS011;31871;49.418;8.752;2022-12-18T13:41:38;42.10;;;11.33;;
46136;SDS011;31871;49.418;8.752;2022-12-18T13:44:11;39.27;;;11.97;;
46136;SDS011;31871;49.418;8.752;2022-12-18T13:46:48;29.87;;;10.23;;
46136;SDS011;31871;49.418;8.752;2022-12-18T13:49:23;44.13;;;12.63;;
46136;SDS011;31871;49.418;8.752;2022-12-18T13:52:02;35.87;;;11.77;;
46136;SDS011;31871;49.418;8.752;2022-12-18T14:00:25;44.57;;;11.97;;
46136;SDS011;31871;49.418;8.752;2022-12-18T14:02:53;48.00;;;11.13;;
46136;SDS011;31871;49.418;8.752;2022-12-18T14:07:55;47.47;;;12.47;;
46136;SDS011;31871;49.418;8.752;2022-12-18T14:10:25;43.33;;;10.87;;
46136;SDS011;31871;49.418;8.752;2022-12-18T14:12:51;39.00;;;12.60;;
46136;SDS011;31871;49.418;8.752;2022-12-18T14:18:09;36.80;;;11.50;;
46136;SDS011;31871;49.418;8.752;2022-12-18T14:20:41;34.80;;;11.23;;
46136;SDS011;31871;49.418;8.752;2022-12-18T14:23:25;34.30;;;11.57;;
46136;SDS011;31871;49.418;8.752;2022-12-18T14:25:55;44.30;;;12.47;;
46136;SDS011;31871;49.418;8.752;2022-12-18T14:28:21;40.27;;;10.60;;
46136;SDS011;31871;49.418;8.752;2022-12-18T14:30:50;34.67;;;12.10;;
46136;SDS011;31871;49.418;8.752;2022-12-18T14:40:57;40.67;;;11.90;;
46136;SDS011;31871;49.418;8.752;2022-12-18T14:43:27;33.70;;;11.47;;
46136;SDS011;31871;49.418;8.752;2022-12-18T14:45:55;37.97;;;11.57;;
46136;SDS011;31871;49.418;8.752;2022-12-18T14:48:31;36.77;;;11.90;;
46136;SDS011;31871;49.418;8.752;2022-12-18T14:51:00;36.17;;;11.40;;
46136;SDS011;31871;49.418;8.752;2022-12-18T14:53:34;36.67;;;10.63;;
46136;SDS011;31871;49.418;8.752;2022-12-18T14:56:20;31.53;;;9.67;;
46136;SDS011;31871;49.418;8.752;2022-12-18T14:58:58;37.43;;;11.67;;
46136;SDS011;31871;49.418;8.752;2022-12-18T15:01:25;39.70;;;12.10;;
46136;SDS011;31871;49.418;8.752;2022-12-18T15:04:02;40.87;;;11.30;;
46136;SDS011;31871;49.418;8.752;2022-12-18T15:08:58;48.43;;;13.27;;
46136;SDS011;31871;49.418;8.752;2022-12-18T15:11:30;42.40;;;13.27;;
46136;SDS011;31871;49.418;8.752;2022-12-18T15:16:55;41.80;;;12.57;;
46136;SDS011;31871;49.418;8.752;2022-12-18T15:19:21;37.63;;;12.30;;
46136;SDS011;31871;49.418;8.752;2022-12-18T15:21:57;46.77;;;12.97;;
46136;SDS011;31871;49.418;8.752;2022-12-18T15:24:24;38.83;;;12.63;;
46136;SDS011;31871;49.418;8.752;2022-12-18T15:26:56;58.00;;;14.60;;
46136;SDS011;31871;49.418;8.752;2022-12-18T15:29:22;49.90;;;13.37;;
46136;SDS011;31871;49.418;8.752;2022-12-18T15:32:03;41.83;;;12.43;;
46136;SDS011;31871;49.418;8.752;2022-12-18T15:34:31;41.60;;;12.20;;
46136;SDS011;31871;49.418;8.752;2022-12-18T15:36:59;40.43;;;11.37;;
46136;SDS011;31871;49.418;8.752;2022-12-18T15:39:24;41.27;;;13.27;;
46136;SDS011;31871;49.418;8.752;2022-12-18T15:41:50;41.60;;;12.07;;
46136;SDS011;31871;49.418;8.752;2022-12-18T15:44:43;40.67;;;13.10;;
46136;SDS011;31871;49.418;8.752;2022-12-18T15:47:10;44.63;;;13.60;;
46136;SDS011;31871;49.418;8.752;2022-12-18T15:49:37;45.57;;;14.20;;
46136;SDS011;31871;49.418;8.752;2022-12-18T15:52:02;46.03;;;13.67;;
46136;SDS011;31871;49.418;8.752;2022-12-18T15:54:29;62.57;;;15.70;;
46136;SDS011;31871;49.418;8.752;2022-12-18T15:57:13;44.70;;;12.70;;
46136;SDS011;31871;49.418;8.752;2022-12-18T15:59:48;42.07;;;13.43;;
46136;SDS011;31871;49.418;8.752;2022-12-18T16:02:14;57.40;;;15.77;;
46136;SDS011;31871;49.418;8.752;2022-12-18T16:04:42;47.57;;;14.40;;
46136;SDS011;31871;49.418;8.752;2022-12-18T16:07:07;50.30;;;13.57;;
46136;SDS011;31871;49.418;8.752;2022-12-18T16:09:34;51.70;;;12.90;;
46136;SDS011;31871;49.418;8.752;2022-12-18T16:12:00;43.63;;;13.20;;
46136;SDS011;31871;49.418;8.752;2022-12-18T16:14:26;60.83;;;15.50;;
46136;SDS011;31871;49.418;8.752;2022-12-18T16:16:57;45.47;;;14.00;;
46136;SDS011;31871;49.418;8.752;2022-12-18T16:19:24;60.70;;;16.70;;
46136;SDS011;31871;49.418;8.752;2022-12-18T16:21:51;45.23;;;14.20;;
46136;SDS011;31871;49.418;8.752;2022-12-18T16:24:18;50.37;;;14.93;;
46136;SDS011;31871;49.418;8.752;2022-12-18T16:26:49;52.70;;;13.93;;
46136;SDS011;31871;49.418;8.752;2022-12-18T16:29:16;43.10;;;13.43;;
46136;SDS011;31871;49.418;8.752;2022-12-18T16:31:42;55.63;;;15.10;;
46136;SDS011;31871;49.418;8.752;2022-12-18T16:34:17;51.37;;;13.43;;
46136;SDS011;31871;49.418;8.752;2022-12-18T16:36:50;51.70;;;15.87;;
46136;SDS011;31871;49.418;8.752;2022-12-18T16:39:18;50.40;;;15.03;;
46136;SDS011;31871;49.418;8.752;2022-12-18T16:41:44;34.43;;;11.80;;
46136;SDS011;31871;49.418;8.752;2022-12-18T16:44:10;42.37;;;12.87;;
46136;SDS011;31871;49.418;8.752;2022-12-18T16:46:37;63.07;;;18.60;;
46136;SDS011;31871;49.418;8.752;2022-12-18T16:49:02;54.17;;;16.50;;
46136;SDS011;31871;49.418;8.752;2022-12-18T16:51:28;44.33;;;13.10;;
46136;SDS011;31871;49.418;8.752;2022-12-18T16:53:54;42.20;;;13.43;;
46136;SDS011;31871;49.418;8.752;2022-12-18T16:56:20;34.90;;;12.40;;
46136;SDS011;31871;49.418;8.752;2022-12-18T16:58:51;44.67;;;12.87;;
46136;SDS011;31871;49.418;8.752;2022-12-18T17:01:17;60.17;;;14.93;;
46136;SDS011;31871;49.418;8.752;2022-12-18T17:03:43;35.17;;;12.03;;
46136;SDS011;31871;49.418;8.752;2022-12-18T17:06:09;42.87;;;14.10;;